Ana Sayfa
METAR-TAF:

METAR-TAF

Havaalanları :

Sam Mbakwe Airport

Owerri, Nijerya

Enlem: 5-25-35N, Boylam: 7-12-20E, yükseklik: 114 m

METAR: eksik

Saat: 11:30 (10:30 UTC)

Tahmin

Rapor saat 05:00 UTC de 5 saat ve 30 dakika önce yapıldı.
Ayın 29'si saat 06 UTC'den ayın 30'si saat 12 UTC'ye kadar geçerli Tahmin
Rüzgar kuzeydan kt
Görüş mesafesi: 7000 m
Geçici
ayın 29'si saat 06 UTC'den ayın 29'si saat 08 UTC'ye kadar
Görüş mesafesi: 5000 m
Toz Pusu
Dönüşüyor
ayın 29'si saat 08 UTC'den ayın 29'si saat 10 UTC'ye kadar
Rüzgar batıdan 10 kt

TAF: DNIM 290500Z 2906/3012 00000KT 7000 NSC TEMPO 2906/2908 5000 HZ BECMG 2908/2910 28010KT

4.000'den fazla havaalanı için hava durumu gözlemleri ve tahminleri (METAR ve TAF raporları).

Kullanılabilir istasyonlar harita üzerinde sarı ve kırmızı noktalarla gösterilir.

İstasyonun adını görmek için fareyi noktanın üzerinde gezdirin.

Sonrasında hava gözlem ve tahminlerini görmek için tıklayın.

Haritayı değiştirmek için: yaklaştırmak için siyah artı işaretli yeşil düğmeye ve uzaklaştırmak için de eksi işaretli düğmeye hızla tıklayın; bitişik haritalar için yeşil okları kullanın.


METAR-TAF: